Flight Track Log - Related Links

Times and Time Zones

All times are in EDT time to prevent confusion due to time zone crossing. See the SWA718 flight status page for this flight to view local times or setup timezone preferences in your user account.

Time Position Orientation Groundspeed Altitude Reporting Facility
EDT Latitude Longitude Course Direction KTS MPH feet Rate Location/Type
Wed 09:40:41 AM 35.3789 -97.5906 174° South 141 162 2,100  Level Fort Worth Center
Wed 09:41:47 AM 35.3256 -97.5842 174° South 194 223 4,200 2,000 Climbing Fort Worth Center
Wed 09:42:08 AM 35.3039 -97.5814 174° South 198 228 5,000 2,618 Climbing Fort Worth Center
Wed 09:42:42 AM 35.2681 -97.5786 176° South 235 270 6,600 2,710 Climbing Fort Worth Center
Wed 09:43:10 AM 35.2397 -97.5761 176° South 228 262 7,800 2,200 Climbing Fort Worth Center
Wed 09:44:12 AM 35.1586 -97.5681 175° South 276 318 9,900 1,440 Climbing Fort Worth Center
Wed 09:45:15 AM 35.0853 -97.5631 177° South 300 345 10,800 1,728 Climbing Fort Worth Center
Wed 09:46:17 AM 34.9692 -97.5525 176° South 344 396 13,500 2,323 Climbing Fort Worth Center
Wed 09:47:19 AM 34.8728 -97.5172 163° South 364 419 15,600 1,935 Climbing Fort Worth Center
Wed 09:48:21 AM 34.7767 -97.4672 157° South 371 427 17,500 1,694 Climbing Fort Worth Center
Wed 09:49:23 AM 34.6783 -97.4147 156° South 383 441 19,100 1,645 Climbing Fort Worth Center
Wed 09:50:25 AM 34.5764 -97.3622 157° South 397 457 20,900 1,694 Climbing Fort Worth Center
Wed 09:51:27 AM 34.4544 -97.2961 156° South 398 458 22,600 1,452 Climbing Fort Worth Center
Wed 09:52:29 AM 34.3503 -97.2406 156° South 404 465 23,900 1,258 Climbing Fort Worth Center
Wed 09:53:31 AM 34.2436 -97.1833 156° South 415 478 25,200 1,161 Climbing Fort Worth Center
Wed 09:54:33 AM 34.1308 -97.1525 167° South 416 479 26,300 1,065 Climbing Fort Worth Center
Wed 09:55:35 AM 34.0025 -97.1258 170° South 423 487 27,400 1,392 Climbing Fort Worth Center
Wed 09:56:38 AM 33.8844 -97.1008 170° South 427 491 29,200 1,728 Climbing Fort Worth Center
Wed 09:57:40 AM 33.7672 -97.0781 171° South 428 493 31,000 1,597 Climbing Fort Worth Center
Wed 09:58:42 AM 33.6536 -97.0553 171° South 420 483 32,500 1,344 Climbing Fort Worth Center
Wed 09:59:45 AM 33.5400 -97.0325 171° South 415 478 33,800 1,392 Climbing Fort Worth Center
Wed 10:00:47 AM 33.4058 -97.0047 170° South 410 472 35,400 1,306 Climbing Fort Worth Center
Wed 10:01:49 AM 33.2972 -96.9836 171° South 397 457 36,500 774 Climbing Fort Worth Center
Wed 10:02:51 AM 33.1875 -96.9617 170° South 397 457 37,000 242 Climbing Fort Worth Center
Wed 10:03:53 AM 33.0744 -96.9400 171° South 405 466 37,000  Level Fort Worth Center
Wed 10:04:55 AM 32.9619 -96.9172 170° South 405 466 37,000  Level Fort Worth Center
Wed 10:05:57 AM 32.8503 -96.8994 172° South 403 464 37,000  Level Fort Worth Center
Wed 10:06:59 AM 32.7406 -96.8950 178° South 393 452 37,000  Level Fort Worth Center
Wed 10:08:01 AM 32.6325 -96.8894 178° South 392 451 37,000  Level Fort Worth Center
Wed 10:09:03 AM 32.5022 -96.8822 177° South 390 449 37,000  Level Fort Worth Center
Wed 10:10:05 AM 32.3939 -96.8769 178° South 390 449 37,000  Level Fort Worth Center
Wed 10:11:08 AM 32.2875 -96.8700 177° South 387 445 37,000  Level Fort Worth Center
Wed 10:12:10 AM 32.1797 -96.8658 178° South 387 445 37,000  Level Fort Worth Center
Wed 10:13:12 AM 32.0717 -96.8597 177° South 387 445 37,000  Level Fort Worth Center
Wed 10:14:14 AM 31.9517 -96.8531 177° South 388 447 37,000  Level Fort Worth Center
Wed 10:15:16 AM 31.8431 -96.8475 178° South 388 447 37,000  Level Fort Worth Center
Wed 10:16:18 AM 31.7333 -96.8411 177° South 391 450 37,000  Level Fort Worth Center
Wed 10:17:20 AM 31.6219 -96.8244 173° South 396 456 37,000  Level Fort Worth Center
Wed 10:18:22 AM 31.4900 -96.8028 172° South 398 458 37,000  Level Fort Worth Center
Wed 10:19:24 AM 31.3775 -96.7844 172° South 401 461 37,000 -48 Level Fort Worth Center
Wed 10:20:26 AM 31.2661 -96.7664 172° South 403 464 36,900 -1,113 Descending Fort Worth Center
Wed 10:21:28 AM 31.1525 -96.7489 172° South 408 470 34,700 -2,448 Descending Fort Worth Center
Wed 10:22:31 AM 31.0394 -96.7297 172° South 408 470 31,800 -2,784 Descending Fort Worth Center
Wed 10:23:33 AM 30.9247 -96.7119 172° South 408 470 28,900 -2,516 Descending Fort Worth Center
Wed 10:24:35 AM 30.8125 -96.6944 172° South 408 470 26,600 -2,419 Descending Fort Worth Center
Wed 10:25:37 AM 30.6819 -96.6736 172° South 397 457 23,900 -2,274 Descending Fort Worth Center
Wed 10:26:39 AM 30.5778 -96.6400 164° South 402 463 21,900 -2,032 Descending Fort Worth Center
Wed 10:27:41 AM 30.4925 -96.5414 135° Southeast 431 496 19,700 -2,177 Descending Fort Worth Center
Wed 10:28:43 AM 30.4069 -96.4381 134° Southeast 445 512 17,400 -2,468 Descending Fort Worth Center
Wed 10:29:45 AM 30.3239 -96.3433 135° Southeast 431 496 14,600 -2,565 Descending Fort Worth Center
Wed 10:30:47 AM 30.2444 -96.2528 135° Southeast 416 479 12,100 -1,742 Descending Fort Worth Center
Wed 10:31:49 AM 30.1422 -96.1725 146° Southeast 390 449 11,000 -522 Descending Fort Worth Center
Wed 10:33:05 AM 30.0256 -96.1103 155° Southeast 373 429 10,900  Descending Houston Center
Wed 10:34:06 AM 29.9417 -96.0642 155° Southeast 299 344 11,000 49 Climbing Houston Center
Wed 10:35:08 AM 29.8672 -96.0269 157° South 285 328 11,000  Level Houston Center
Wed 10:36:16 AM 29.7950 -95.9878 155° Southeast 295 339 11,000 -234 Level Houston Center
Wed 10:37:16 AM 29.7011 -95.9497 161° South 303 349 10,500 -893 Descending Houston Center
Wed 10:38:17 AM 29.6228 -95.9178 160° South 283 326 9,200 -1,377 Descending Houston Center
Wed 10:39:18 AM 29.5636 -95.8669 143° Southeast 283 326 7,700 -1,024 Descending Houston Center
Wed 10:40:20 AM 29.5236 -95.7947 122° Southeast 249 287 7,100 -780 Descending Houston Center
Wed 10:41:21 AM 29.5261 -95.7272 88° East 235 270 6,100 -488 Descending Houston Center
Wed 10:42:23 AM 29.5669 -95.6672 52° Northeast 241 277 6,100  Level Houston Center
Wed 10:43:24 AM 29.6119 -95.6067 49° Northeast 260 299 6,100 -185 Level Houston Center
Wed 10:44:33 AM 29.6722 -95.5481 40° Northeast 247 284 5,700 -393 Descending Houston Center
Wed 10:45:26 AM 29.7231 -95.5119 32° Northeast 223 257 5,300 -730 Descending Houston Center
Wed 10:46:28 AM 29.7678 -95.4728 37° Northeast 198 228 4,300 -976 Descending Houston Center
Wed 10:47:29 AM 29.7608 -95.4208 99° East 160 184 3,300 -917 Descending Houston Center
Wed 10:47:40 AM 29.7608 -95.4169 90° East 178 205 3,200 -689 Descending Houston Center
Wed 10:48:30 AM 29.7278 -95.3789 135° Southeast 169 194 2,600 -677 Descending Houston Center
Wed 10:48:42 AM 29.7292 -95.3781 28° Northeast 170 196 2,500 -873 Descending Houston Center
Wed 10:49:25 AM 29.6992 -95.3439 135° Southeast 169 194 1,800 -871 Descending Houston Center
Wed 10:49:44 AM 29.6917 -95.3336 130° Southeast 168 193 1,600 -885 Descending Houston Center
Wed 10:50:26 AM 29.6733 -95.3133 136° Southeast 122 140 900 -968 Descending Houston Center
Wed 10:50:46 AM 29.6672 -95.3056 132° Southeast 143 165 600 -900 Descending Houston Center

Login

Don't have an account? Register now (free) for customized features, flight alerts, and more!